sensor_id;sensor_type;location;lat;lon;timestamp;temperature;humidity
58582;DHT22;44361;51.476;5.700;2023-03-01T00:01:07;-1.00;89.60
58582;DHT22;44361;51.476;5.700;2023-03-01T00:03:33;-1.00;89.70
58582;DHT22;44361;51.476;5.700;2023-03-01T00:05:59;-1.00;89.70
58582;DHT22;44361;51.476;5.700;2023-03-01T00:08:25;-1.10;89.50
58582;DHT22;44361;51.476;5.700;2023-03-01T00:11:03;-1.10;90.00
58582;DHT22;44361;51.476;5.700;2023-03-01T00:13:29;-1.20;90.10
58582;DHT22;44361;51.476;5.700;2023-03-01T00:15:54;-1.20;90.30
58582;DHT22;44361;51.476;5.700;2023-03-01T00:18:20;-1.10;90.50
58582;DHT22;44361;51.476;5.700;2023-03-01T00:20:53;-1.10;90.40
58582;DHT22;44361;51.476;5.700;2023-03-01T00:23:19;-1.20;90.30
58582;DHT22;44361;51.476;5.700;2023-03-01T00:25:45;-1.20;90.30
58582;DHT22;44361;51.476;5.700;2023-03-01T00:28:11;-1.30;90.30
58582;DHT22;44361;51.476;5.700;2023-03-01T00:30:36;-1.40;90.60
58582;DHT22;44361;51.476;5.700;2023-03-01T00:33:02;-1.50;90.80
58582;DHT22;44361;51.476;5.700;2023-03-01T00:35:28;-1.50;91.10
58582;DHT22;44361;51.476;5.700;2023-03-01T00:37:53;-1.60;91.40
58582;DHT22;44361;51.476;5.700;2023-03-01T00:40:24;-1.60;91.60
58582;DHT22;44361;51.476;5.700;2023-03-01T00:42:49;-1.60;92.00
58582;DHT22;44361;51.476;5.700;2023-03-01T00:45:15;-1.60;92.00
58582;DHT22;44361;51.476;5.700;2023-03-01T00:47:41;-1.60;92.20
58582;DHT22;44361;51.476;5.700;2023-03-01T00:50:07;-1.60;92.10
58582;DHT22;44361;51.476;5.700;2023-03-01T00:52:33;-1.50;92.30
58582;DHT22;44361;51.476;5.700;2023-03-01T00:54:58;-1.30;92.30
58582;DHT22;44361;51.476;5.700;2023-03-01T00:57:24;-1.30;92.10
58582;DHT22;44361;51.476;5.700;2023-03-01T00:59:49;-1.40;92.00
58582;DHT22;44361;51.476;5.700;2023-03-01T01:02:15;-1.40;92.10
58582;DHT22;44361;51.476;5.700;2023-03-01T01:04:41;-1.50;92.10
58582;DHT22;44361;51.476;5.700;2023-03-01T01:07:06;-1.60;92.10
58582;DHT22;44361;51.476;5.700;2023-03-01T01:09:32;-1.70;92.40
58582;DHT22;44361;51.476;5.700;2023-03-01T01:11:57;-1.70;93.00
58582;DHT22;44361;51.476;5.700;2023-03-01T01:14:23;-1.70;92.90
58582;DHT22;44361;51.476;5.700;2023-03-01T01:16:49;-1.70;93.00
58582;DHT22;44361;51.476;5.700;2023-03-01T01:19:15;-1.80;93.30
58582;DHT22;44361;51.476;5.700;2023-03-01T01:21:41;-1.80;93.50
58582;DHT22;44361;51.476;5.700;2023-03-01T01:24:08;-1.80;93.50
58582;DHT22;44361;51.476;5.700;2023-03-01T01:26:34;-1.80;93.50
58582;DHT22;44361;51.476;5.700;2023-03-01T01:29:01;-1.70;93.70
58582;DHT22;44361;51.476;5.700;2023-03-01T01:31:28;-1.70;93.80
58582;DHT22;44361;51.476;5.700;2023-03-01T01:33:54;-1.60;93.70
58582;DHT22;44361;51.476;5.700;2023-03-01T01:36:20;-1.60;93.60
58582;DHT22;44361;51.476;5.700;2023-03-01T01:38:47;-1.50;93.40
58582;DHT22;44361;51.476;5.700;2023-03-01T01:41:13;-1.50;93.40
58582;DHT22;44361;51.476;5.700;2023-03-01T01:43:45;-1.40;93.10
58582;DHT22;44361;51.476;5.700;2023-03-01T01:46:33;-1.50;93.00
58582;DHT22;44361;51.476;5.700;2023-03-01T01:49:12;-1.70;93.00
58582;DHT22;44361;51.476;5.700;2023-03-01T01:51:45;-1.70;93.40
58582;DHT22;44361;51.476;5.700;2023-03-01T01:54:35;-1.70;93.70
58582;DHT22;44361;51.476;5.700;2023-03-01T01:57:03;-1.60;93.80
58582;DHT22;44361;51.476;5.700;2023-03-01T01:59:32;-1.60;93.80
58582;DHT22;44361;51.476;5.700;2023-03-01T02:02:02;-1.70;93.60
58582;DHT22;44361;51.476;5.700;2023-03-01T02:04:29;-1.70;93.80
58582;DHT22;44361;51.476;5.700;2023-03-01T02:07:03;-1.70;93.80
58582;DHT22;44361;51.476;5.700;2023-03-01T02:09:31;-1.80;93.70
58582;DHT22;44361;51.476;5.700;2023-03-01T02:11:57;-1.80;94.00
58582;DHT22;44361;51.476;5.700;2023-03-01T02:14:23;-1.90;93.90
58582;DHT22;44361;51.476;5.700;2023-03-01T02:16:49;-1.80;94.30
58582;DHT22;44361;51.476;5.700;2023-03-01T02:22:30;-1.70;94.00
58582;DHT22;44361;51.476;5.700;2023-03-01T02:27:39;-1.70;94.30
58582;DHT22;44361;51.476;5.700;2023-03-01T02:30:06;-1.70;94.30
58582;DHT22;44361;51.476;5.700;2023-03-01T02:32:33;-1.80;94.10
58582;DHT22;44361;51.476;5.700;2023-03-01T02:34:59;-1.80;94.30
58582;DHT22;44361;51.476;5.700;2023-03-01T02:37:26;-1.80;94.50
58582;DHT22;44361;51.476;5.700;2023-03-01T02:39:59;-1.80;94.50
58582;DHT22;44361;51.476;5.700;2023-03-01T02:42:33;-1.80;94.50
58582;DHT22;44361;51.476;5.700;2023-03-01T02:45:01;-1.70;94.60
58582;DHT22;44361;51.476;5.700;2023-03-01T02:47:26;-1.70;94.60
58582;DHT22;44361;51.476;5.700;2023-03-01T02:49:52;-1.70;94.60
58582;DHT22;44361;51.476;5.700;2023-03-01T02:52:26;-1.80;94.30
58582;DHT22;44361;51.476;5.700;2023-03-01T02:57:29;-1.80;94.70
58582;DHT22;44361;51.476;5.700;2023-03-01T02:59:57;-1.80;94.70
58582;DHT22;44361;51.476;5.700;2023-03-01T03:02:27;-1.90;94.70
58582;DHT22;44361;51.476;5.700;2023-03-01T03:07:34;-1.80;94.90
58582;DHT22;44361;51.476;5.700;2023-03-01T03:10:02;-1.70;94.70
58582;DHT22;44361;51.476;5.700;2023-03-01T03:12:28;-1.90;94.50
58582;DHT22;44361;51.476;5.700;2023-03-01T03:14:53;-1.90;95.00
58582;DHT22;44361;51.476;5.700;2023-03-01T03:17:19;-2.00;95.00
58582;DHT22;44361;51.476;5.700;2023-03-01T03:19:44;-2.10;95.20
58582;DHT22;44361;51.476;5.700;2023-03-01T03:22:11;-2.10;95.50
58582;DHT22;44361;51.476;5.700;2023-03-01T03:24:37;-2.10;95.40
58582;DHT22;44361;51.476;5.700;2023-03-01T03:27:07;-2.10;95.50
58582;DHT22;44361;51.476;5.700;2023-03-01T03:29:33;-2.10;95.90
58582;DHT22;44361;51.476;5.700;2023-03-01T03:31:58;-2.00;95.80
58582;DHT22;44361;51.476;5.700;2023-03-01T03:34:24;-2.10;95.70
58582;DHT22;44361;51.476;5.700;2023-03-01T03:36:54;-2.10;95.70
58582;DHT22;44361;51.476;5.700;2023-03-01T03:39:23;-2.20;95.80
58582;DHT22;44361;51.476;5.700;2023-03-01T03:41:48;-2.20;95.90
58582;DHT22;44361;51.476;5.700;2023-03-01T03:44:14;-2.20;95.90
58582;DHT22;44361;51.476;5.700;2023-03-01T03:46:39;-2.20;96.00
58582;DHT22;44361;51.476;5.700;2023-03-01T03:49:05;-2.20;96.40
58582;DHT22;44361;51.476;5.700;2023-03-01T03:51:31;-2.30;96.20
58582;DHT22;44361;51.476;5.700;2023-03-01T03:53:56;-2.30;96.30
58582;DHT22;44361;51.476;5.700;2023-03-01T03:56:22;-2.30;96.50
58582;DHT22;44361;51.476;5.700;2023-03-01T03:58:53;-2.40;96.60
58582;DHT22;44361;51.476;5.700;2023-03-01T04:01:19;-2.40;96.80
58582;DHT22;44361;51.476;5.700;2023-03-01T04:03:45;-2.40;97.10
58582;DHT22;44361;51.476;5.700;2023-03-01T04:06:12;-2.40;97.10
58582;DHT22;44361;51.476;5.700;2023-03-01T04:08:38;-2.40;97.10
58582;DHT22;44361;51.476;5.700;2023-03-01T04:11:05;-2.40;97.10
58582;DHT22;44361;51.476;5.700;2023-03-01T04:13:49;-2.40;97.00
58582;DHT22;44361;51.476;5.700;2023-03-01T04:16:15;-2.40;97.30
58582;DHT22;44361;51.476;5.700;2023-03-01T04:18:41;-2.40;97.50
58582;DHT22;44361;51.476;5.700;2023-03-01T04:21:06;-2.40;97.70
58582;DHT22;44361;51.476;5.700;2023-03-01T04:23:32;-2.30;97.50
58582;DHT22;44361;51.476;5.700;2023-03-01T04:25:58;-2.30;97.40
58582;DHT22;44361;51.476;5.700;2023-03-01T04:28:31;-2.30;97.10
58582;DHT22;44361;51.476;5.700;2023-03-01T04:31:03;-2.30;97.50
58582;DHT22;44361;51.476;5.700;2023-03-01T04:33:48;-2.30;97.30
58582;DHT22;44361;51.476;5.700;2023-03-01T04:36:16;-2.40;97.40
58582;DHT22;44361;51.476;5.700;2023-03-01T04:38:43;-2.30;97.60
58582;DHT22;44361;51.476;5.700;2023-03-01T04:41:12;-2.20;97.40
58582;DHT22;44361;51.476;5.700;2023-03-01T04:43:38;-2.20;97.30
58582;DHT22;44361;51.476;5.700;2023-03-01T04:46:06;-2.10;97.20
58582;DHT22;44361;51.476;5.700;2023-03-01T04:48:35;-2.10;97.00
58582;DHT22;44361;51.476;5.700;2023-03-01T04:51:01;-2.10;97.00
58582;DHT22;44361;51.476;5.700;2023-03-01T04:53:27;-2.10;96.80
58582;DHT22;44361;51.476;5.700;2023-03-01T04:55:55;-2.10;96.80
58582;DHT22;44361;51.476;5.700;2023-03-01T04:58:27;-2.10;96.80
58582;DHT22;44361;51.476;5.700;2023-03-01T05:00:54;-2.10;96.80
58582;DHT22;44361;51.476;5.700;2023-03-01T05:03:20;-2.10;96.90
58582;DHT22;44361;51.476;5.700;2023-03-01T05:05:48;-2.20;97.00
58582;DHT22;44361;51.476;5.700;2023-03-01T05:08:14;-2.20;97.00
58582;DHT22;44361;51.476;5.700;2023-03-01T05:10:45;-2.20;97.00
58582;DHT22;44361;51.476;5.700;2023-03-01T05:13:12;-2.20;96.90
58582;DHT22;44361;51.476;5.700;2023-03-01T05:15:39;-2.30;97.00
58582;DHT22;44361;51.476;5.700;2023-03-01T05:18:05;-2.30;97.00
58582;DHT22;44361;51.476;5.700;2023-03-01T05:20:37;-2.30;97.20
58582;DHT22;44361;51.476;5.700;2023-03-01T05:23:02;-2.40;97.30
58582;DHT22;44361;51.476;5.700;2023-03-01T05:25:33;-2.40;97.30
58582;DHT22;44361;51.476;5.700;2023-03-01T05:28:03;-2.40;97.60
58582;DHT22;44361;51.476;5.700;2023-03-01T05:30:31;-2.50;97.70
58582;DHT22;44361;51.476;5.700;2023-03-01T05:32:56;-2.40;97.70
58582;DHT22;44361;51.476;5.700;2023-03-01T05:35:23;-2.40;97.60
58582;DHT22;44361;51.476;5.700;2023-03-01T05:37:49;-2.40;97.70
58582;DHT22;44361;51.476;5.700;2023-03-01T05:40:20;-2.50;97.60
58582;DHT22;44361;51.476;5.700;2023-03-01T05:42:48;-2.50;97.70
58582;DHT22;44361;51.476;5.700;2023-03-01T05:45:15;-2.60;97.70
58582;DHT22;44361;51.476;5.700;2023-03-01T05:47:43;-2.70;97.80
58582;DHT22;44361;51.476;5.700;2023-03-01T05:50:14;-2.70;98.20
58582;DHT22;44361;51.476;5.700;2023-03-01T05:52:40;-2.80;98.20
58582;DHT22;44361;51.476;5.700;2023-03-01T05:55:06;-2.90;98.30
58582;DHT22;44361;51.476;5.700;2023-03-01T05:57:31;-2.90;98.50
58582;DHT22;44361;51.476;5.700;2023-03-01T05:59:57;-3.00;98.50
58582;DHT22;44361;51.476;5.700;2023-03-01T06:02:22;-3.00;98.90
58582;DHT22;44361;51.476;5.700;2023-03-01T06:04:48;-2.90;99.30
58582;DHT22;44361;51.476;5.700;2023-03-01T06:07:13;-2.90;99.40
58582;DHT22;44361;51.476;5.700;2023-03-01T06:09:39;-2.80;99.20
58582;DHT22;44361;51.476;5.700;2023-03-01T06:12:05;-2.80;99.40
58582;DHT22;44361;51.476;5.700;2023-03-01T06:14:30;-2.90;99.00
58582;DHT22;44361;51.476;5.700;2023-03-01T06:16:56;-2.80;99.30
58582;DHT22;44361;51.476;5.700;2023-03-01T06:19:22;-2.80;98.90
58582;DHT22;44361;51.476;5.700;2023-03-01T06:21:47;-2.80;98.80
58582;DHT22;44361;51.476;5.700;2023-03-01T06:24:13;-2.80;98.80
58582;DHT22;44361;51.476;5.700;2023-03-01T06:26:38;-2.80;98.80
58582;DHT22;44361;51.476;5.700;2023-03-01T06:29:04;-2.90;98.80
58582;DHT22;44361;51.476;5.700;2023-03-01T06:31:30;-2.90;98.80
58582;DHT22;44361;51.476;5.700;2023-03-01T06:33:55;-3.00;98.70
58582;DHT22;44361;51.476;5.700;2023-03-01T06:36:21;-3.00;98.90
58582;DHT22;44361;51.476;5.700;2023-03-01T06:38:47;-3.00;99.20
58582;DHT22;44361;51.476;5.700;2023-03-01T06:41:12;-3.00;99.40
58582;DHT22;44361;51.476;5.700;2023-03-01T06:43:38;-3.00;99.50
58582;DHT22;44361;51.476;5.700;2023-03-01T06:46:05;-2.90;99.80
58582;DHT22;44361;51.476;5.700;2023-03-01T06:48:32;-2.90;99.70
58582;DHT22;44361;51.476;5.700;2023-03-01T06:50:59;-2.90;99.60
58582;DHT22;44361;51.476;5.700;2023-03-01T06:53:26;-3.00;99.50
58582;DHT22;44361;51.476;5.700;2023-03-01T06:55:59;-3.00;99.60
58582;DHT22;44361;51.476;5.700;2023-03-01T06:58:25;-3.00;99.80
58582;DHT22;44361;51.476;5.700;2023-03-01T07:00:51;-2.90;99.90
58582;DHT22;44361;51.476;5.700;2023-03-01T07:03:17;-2.80;99.90
58582;DHT22;44361;51.476;5.700;2023-03-01T07:05:42;-2.70;99.90
58582;DHT22;44361;51.476;5.700;2023-03-01T07:08:08;-2.60;99.90
58582;DHT22;44361;51.476;5.700;2023-03-01T07:10:33;-2.60;99.60
58582;DHT22;44361;51.476;5.700;2023-03-01T07:12:59;-2.50;99.30
58582;DHT22;44361;51.476;5.700;2023-03-01T07:15:25;-2.40;99.50
58582;DHT22;44361;51.476;5.700;2023-03-01T07:17:51;-2.30;98.90
58582;DHT22;44361;51.476;5.700;2023-03-01T07:20:18;-2.30;98.70
58582;DHT22;44361;51.476;5.700;2023-03-01T07:22:44;-2.30;98.60
58582;DHT22;44361;51.476;5.700;2023-03-01T07:25:10;-2.30;98.70
58582;DHT22;44361;51.476;5.700;2023-03-01T07:27:36;-2.30;98.70
58582;DHT22;44361;51.476;5.700;2023-03-01T07:30:02;-2.20;98.90
58582;DHT22;44361;51.476;5.700;2023-03-01T07:32:28;-2.10;98.80
58582;DHT22;44361;51.476;5.700;2023-03-01T07:34:53;-2.00;98.90
58582;DHT22;44361;51.476;5.700;2023-03-01T07:37:19;-1.80;99.20
58582;DHT22;44361;51.476;5.700;2023-03-01T07:39:44;-1.60;98.70
58582;DHT22;44361;51.476;5.700;2023-03-01T07:42:10;-1.60;98.30
58582;DHT22;44361;51.476;5.700;2023-03-01T07:44:36;-1.40;98.40
58582;DHT22;44361;51.476;5.700;2023-03-01T07:47:02;-1.10;97.90
58582;DHT22;44361;51.476;5.700;2023-03-01T07:49:28;-0.90;97.30
58582;DHT22;44361;51.476;5.700;2023-03-01T07:51:53;-0.80;96.80
58582;DHT22;44361;51.476;5.700;2023-03-01T07:54:19;-0.70;96.30
58582;DHT22;44361;51.476;5.700;2023-03-01T07:56:45;-0.60;95.70
58582;DHT22;44361;51.476;5.700;2023-03-01T07:59:10;-0.50;95.50
58582;DHT22;44361;51.476;5.700;2023-03-01T08:01:35;-0.30;95.20
58582;DHT22;44361;51.476;5.700;2023-03-01T08:04:01;-0.20;95.10
58582;DHT22;44361;51.476;5.700;2023-03-01T08:06:27;0.00;94.70
58582;DHT22;44361;51.476;5.700;2023-03-01T08:08:53;0.00;94.70
58582;DHT22;44361;51.476;5.700;2023-03-01T08:11:21;0.10;94.30
58582;DHT22;44361;51.476;5.700;2023-03-01T08:13:48;0.30;94.50
58582;DHT22;44361;51.476;5.700;2023-03-01T08:16:15;0.30;94.20
58582;DHT22;44361;51.476;5.700;2023-03-01T08:18:41;0.40;93.70
58582;DHT22;44361;51.476;5.700;2023-03-01T08:21:10;0.50;93.30
58582;DHT22;44361;51.476;5.700;2023-03-01T08:23:36;0.50;92.90
58582;DHT22;44361;51.476;5.700;2023-03-01T08:26:13;0.60;92.90
58582;DHT22;44361;51.476;5.700;2023-03-01T08:28:39;0.60;92.80
58582;DHT22;44361;51.476;5.700;2023-03-01T08:33:53;0.90;92.90
58582;DHT22;44361;51.476;5.700;2023-03-01T08:36:32;0.90;91.90
58582;DHT22;44361;51.476;5.700;2023-03-01T08:38:58;1.00;92.10
58582;DHT22;44361;51.476;5.700;2023-03-01T08:41:24;1.10;92.20
58582;DHT22;44361;51.476;5.700;2023-03-01T08:43:50;1.20;92.10
58582;DHT22;44361;51.476;5.700;2023-03-01T08:46:16;1.30;91.50
58582;DHT22;44361;51.476;5.700;2023-03-01T08:48:41;1.40;91.10
58582;DHT22;44361;51.476;5.700;2023-03-01T08:51:15;1.50;90.70
58582;DHT22;44361;51.476;5.700;2023-03-01T08:53:41;1.60;90.70
58582;DHT22;44361;51.476;5.700;2023-03-01T08:56:07;1.70;90.80
58582;DHT22;44361;51.476;5.700;2023-03-01T08:58:33;1.80;90.90
58582;DHT22;44361;51.476;5.700;2023-03-01T09:00:58;1.80;90.30
58582;DHT22;44361;51.476;5.700;2023-03-01T09:03:25;1.90;90.90
58582;DHT22;44361;51.476;5.700;2023-03-01T09:05:51;2.00;89.20
58582;DHT22;44361;51.476;5.700;2023-03-01T09:08:17;2.10;90.20
58582;DHT22;44361;51.476;5.700;2023-03-01T09:10:43;2.10;88.20
58582;DHT22;44361;51.476;5.700;2023-03-01T09:13:09;2.20;87.60
58582;DHT22;44361;51.476;5.700;2023-03-01T09:15:37;2.30;88.30
58582;DHT22;44361;51.476;5.700;2023-03-01T09:18:02;2.40;87.60
58582;DHT22;44361;51.476;5.700;2023-03-01T09:20:28;2.50;88.20
58582;DHT22;44361;51.476;5.700;2023-03-01T09:22:53;2.60;87.30
58582;DHT22;44361;51.476;5.700;2023-03-01T09:25:19;2.70;87.90
58582;DHT22;44361;51.476;5.700;2023-03-01T09:27:44;2.90;87.70
58582;DHT22;44361;51.476;5.700;2023-03-01T09:30:10;3.00;85.80
58582;DHT22;44361;51.476;5.700;2023-03-01T09:32:36;3.10;83.10
58582;DHT22;44361;51.476;5.700;2023-03-01T09:35:02;3.10;82.80
58582;DHT22;44361;51.476;5.700;2023-03-01T09:37:34;3.00;82.00
58582;DHT22;44361;51.476;5.700;2023-03-01T09:40:01;3.10;82.20
58582;DHT22;44361;51.476;5.700;2023-03-01T09:42:28;3.20;80.90
58582;DHT22;44361;51.476;5.700;2023-03-01T09:45:02;3.20;80.90
58582;DHT22;44361;51.476;5.700;2023-03-01T09:47:31;3.20;81.20
58582;DHT22;44361;51.476;5.700;2023-03-01T09:52:42;3.50;79.30
58582;DHT22;44361;51.476;5.700;2023-03-01T09:55:14;3.60;78.50
58582;DHT22;44361;51.476;5.700;2023-03-01T09:57:49;3.80;79.00
58582;DHT22;44361;51.476;5.700;2023-03-01T10:00:18;3.90;78.20
58582;DHT22;44361;51.476;5.700;2023-03-01T10:02:49;4.00;77.50
58582;DHT22;44361;51.476;5.700;2023-03-01T10:10:36;4.00;76.30
58582;DHT22;44361;51.476;5.700;2023-03-01T10:15:51;4.10;73.40
58582;DHT22;44361;51.476;5.700;2023-03-01T10:18:22;4.20;74.10
58582;DHT22;44361;51.476;5.700;2023-03-01T10:21:05;4.20;73.80
58582;DHT22;44361;51.476;5.700;2023-03-01T10:23:34;4.20;73.70
58582;DHT22;44361;51.476;5.700;2023-03-01T10:26:15;4.20;72.60
58582;DHT22;44361;51.476;5.700;2023-03-01T10:31:23;4.20;70.20
58582;DHT22;44361;51.476;5.700;2023-03-01T10:33:53;4.20;70.90
58582;DHT22;44361;51.476;5.700;2023-03-01T10:36:21;4.30;70.90
58582;DHT22;44361;51.476;5.700;2023-03-01T10:38:56;4.40;70.50
58582;DHT22;44361;51.476;5.700;2023-03-01T10:41:24;4.50;70.70
58582;DHT22;44361;51.476;5.700;2023-03-01T10:43:56;4.50;68.70
58582;DHT22;44361;51.476;5.700;2023-03-01T10:46:31;4.40;68.90
58582;DHT22;44361;51.476;5.700;2023-03-01T10:49:19;4.50;69.10
58582;DHT22;44361;51.476;5.700;2023-03-01T10:51:47;4.70;67.40
58582;DHT22;44361;51.476;5.700;2023-03-01T10:54:25;4.70;67.20
58582;DHT22;44361;51.476;5.700;2023-03-01T10:56:55;4.70;66.40
58582;DHT22;44361;51.476;5.700;2023-03-01T10:59:26;4.70;66.30
58582;DHT22;44361;51.476;5.700;2023-03-01T11:02:16;4.70;66.60
58582;DHT22;44361;51.476;5.700;2023-03-01T11:07:59;4.80;66.50
58582;DHT22;44361;51.476;5.700;2023-03-01T11:10:31;5.00;65.80
58582;DHT22;44361;51.476;5.700;2023-03-01T11:13:17;5.00;64.50
58582;DHT22;44361;51.476;5.700;2023-03-01T11:15:58;5.00;63.80
58582;DHT22;44361;51.476;5.700;2023-03-01T11:18:24;4.90;64.30
58582;DHT22;44361;51.476;5.700;2023-03-01T11:20:53;5.00;65.10
58582;DHT22;44361;51.476;5.700;2023-03-01T11:23:20;4.90;63.30
58582;DHT22;44361;51.476;5.700;2023-03-01T11:25:59;5.10;64.10
58582;DHT22;44361;51.476;5.700;2023-03-01T11:28:28;5.20;62.70
58582;DHT22;44361;51.476;5.700;2023-03-01T11:31:00;5.00;62.00
58582;DHT22;44361;51.476;5.700;2023-03-01T11:33:53;5.00;62.40
58582;DHT22;44361;51.476;5.700;2023-03-01T11:36:31;5.10;62.90
58582;DHT22;44361;51.476;5.700;2023-03-01T11:39:03;5.30;63.70
58582;DHT22;44361;51.476;5.700;2023-03-01T11:41:33;5.30;63.10
58582;DHT22;44361;51.476;5.700;2023-03-01T11:44:04;5.50;62.20
58582;DHT22;44361;51.476;5.700;2023-03-01T11:47:03;5.40;61.00
58582;DHT22;44361;51.476;5.700;2023-03-01T12:16:28;6.00;58.90
58582;DHT22;44361;51.476;5.700;2023-03-01T12:19:26;6.00;59.30
58582;DHT22;44361;51.476;5.700;2023-03-01T12:28:19;5.70;58.50
58582;DHT22;44361;51.476;5.700;2023-03-01T12:39:49;6.10;61.00
58582;DHT22;44361;51.476;5.700;2023-03-01T12:45:32;6.00;60.40
58582;DHT22;44361;51.476;5.700;2023-03-01T12:51:17;6.10;59.30
58582;DHT22;44361;51.476;5.700;2023-03-01T12:53:48;6.10;60.00
58582;DHT22;44361;51.476;5.700;2023-03-01T12:56:27;6.10;60.10
58582;DHT22;44361;51.476;5.700;2023-03-01T12:59:28;6.20;61.20
58582;DHT22;44361;51.476;5.700;2023-03-01T13:02:09;6.30;59.20
58582;DHT22;44361;51.476;5.700;2023-03-01T13:10:43;6.00;59.80
58582;DHT22;44361;51.476;5.700;2023-03-01T13:15:45;6.30;60.10
58582;DHT22;44361;51.476;5.700;2023-03-01T13:33:50;6.40;59.90
58582;DHT22;44361;51.476;5.700;2023-03-01T13:44:30;6.20;59.70
58582;DHT22;44361;51.476;5.700;2023-03-01T13:49:48;6.40;60.10
58582;DHT22;44361;51.476;5.700;2023-03-01T13:57:48;6.50;59.50
58582;DHT22;44361;51.476;5.700;2023-03-01T14:03:09;6.50;58.70
58582;DHT22;44361;51.476;5.700;2023-03-01T14:05:35;6.50;57.90
58582;DHT22;44361;51.476;5.700;2023-03-01T14:08:02;6.50;58.70
58582;DHT22;44361;51.476;5.700;2023-03-01T14:10:49;6.50;58.10
58582;DHT22;44361;51.476;5.700;2023-03-01T14:13:25;6.50;59.10
58582;DHT22;44361;51.476;5.700;2023-03-01T14:16:18;6.60;60.00
58582;DHT22;44361;51.476;5.700;2023-03-01T14:19:02;6.60;59.30
58582;DHT22;44361;51.476;5.700;2023-03-01T14:21:34;6.60;59.00
58582;DHT22;44361;51.476;5.700;2023-03-01T14:24:00;6.70;59.40
58582;DHT22;44361;51.476;5.700;2023-03-01T14:26:26;6.80;57.30
58582;DHT22;44361;51.476;5.700;2023-03-01T14:28:52;6.80;57.10
58582;DHT22;44361;51.476;5.700;2023-03-01T14:31:37;6.70;56.20
58582;DHT22;44361;51.476;5.700;2023-03-01T14:34:03;6.80;56.30
58582;DHT22;44361;51.476;5.700;2023-03-01T14:36:31;6.70;55.80
58582;DHT22;44361;51.476;5.700;2023-03-01T14:38:57;6.80;57.00
58582;DHT22;44361;51.476;5.700;2023-03-01T14:41:32;6.80;56.80
58582;DHT22;44361;51.476;5.700;2023-03-01T14:44:02;6.70;57.80
58582;DHT22;44361;51.476;5.700;2023-03-01T14:46:30;6.70;58.60
58582;DHT22;44361;51.476;5.700;2023-03-01T14:49:02;6.70;56.90
58582;DHT22;44361;51.476;5.700;2023-03-01T14:51:28;6.70;56.90
58582;DHT22;44361;51.476;5.700;2023-03-01T14:53:54;6.60;56.40
58582;DHT22;44361;51.476;5.700;2023-03-01T14:56:20;6.60;56.30
58582;DHT22;44361;51.476;5.700;2023-03-01T14:58:46;6.60;56.20
58582;DHT22;44361;51.476;5.700;2023-03-01T15:01:16;6.60;57.00
58582;DHT22;44361;51.476;5.700;2023-03-01T15:03:47;6.60;55.70
58582;DHT22;44361;51.476;5.700;2023-03-01T15:06:17;6.60;55.70
58582;DHT22;44361;51.476;5.700;2023-03-01T15:08:47;6.60;56.70
58582;DHT22;44361;51.476;5.700;2023-03-01T15:11:23;6.60;56.20
58582;DHT22;44361;51.476;5.700;2023-03-01T15:13:50;6.60;56.70
58582;DHT22;44361;51.476;5.700;2023-03-01T15:16:23;6.50;57.30
58582;DHT22;44361;51.476;5.700;2023-03-01T15:18:52;6.50;56.90
58582;DHT22;44361;51.476;5.700;2023-03-01T15:21:39;6.50;56.10
58582;DHT22;44361;51.476;5.700;2023-03-01T15:24:26;6.60;56.30
58582;DHT22;44361;51.476;5.700;2023-03-01T15:26:59;6.50;57.00
58582;DHT22;44361;51.476;5.700;2023-03-01T15:29:29;6.60;57.30
58582;DHT22;44361;51.476;5.700;2023-03-01T15:32:25;6.60;57.30
58582;DHT22;44361;51.476;5.700;2023-03-01T15:34:51;6.50;56.50
58582;DHT22;44361;51.476;5.700;2023-03-01T15:37:44;6.50;56.40
58582;DHT22;44361;51.476;5.700;2023-03-01T15:40:27;6.50;56.00
58582;DHT22;44361;51.476;5.700;2023-03-01T15:43:05;6.40;56.00
58582;DHT22;44361;51.476;5.700;2023-03-01T15:45:32;6.40;55.70
58582;DHT22;44361;51.476;5.700;2023-03-01T15:48:19;6.40;55.30
58582;DHT22;44361;51.476;5.700;2023-03-01T15:50:57;6.40;55.60
58582;DHT22;44361;51.476;5.700;2023-03-01T15:53:23;6.40;55.70
58582;DHT22;44361;51.476;5.700;2023-03-01T15:55:49;6.30;55.30
58582;DHT22;44361;51.476;5.700;2023-03-01T16:00:42;6.30;56.20
58582;DHT22;44361;51.476;5.700;2023-03-01T16:03:10;6.20;56.40
58582;DHT22;44361;51.476;5.700;2023-03-01T16:05:38;6.20;56.40
58582;DHT22;44361;51.476;5.700;2023-03-01T16:08:04;6.20;56.90
58582;DHT22;44361;51.476;5.700;2023-03-01T16:10:35;6.20;56.70
58582;DHT22;44361;51.476;5.700;2023-03-01T16:13:00;6.10;57.40
58582;DHT22;44361;51.476;5.700;2023-03-01T16:15:31;6.10;57.30
58582;DHT22;44361;51.476;5.700;2023-03-01T16:17:57;6.10;55.50
58582;DHT22;44361;51.476;5.700;2023-03-01T16:20:26;6.00;55.70
58582;DHT22;44361;51.476;5.700;2023-03-01T16:22:52;6.00;55.90
58582;DHT22;44361;51.476;5.700;2023-03-01T16:25:19;6.00;56.10
58582;DHT22;44361;51.476;5.700;2023-03-01T16:27:46;6.00;56.10
58582;DHT22;44361;51.476;5.700;2023-03-01T16:30:14;5.90;56.00
58582;DHT22;44361;51.476;5.700;2023-03-01T16:32:42;5.80;56.60
58582;DHT22;44361;51.476;5.700;2023-03-01T16:35:10;5.80;55.90
58582;DHT22;44361;51.476;5.700;2023-03-01T16:37:36;5.80;55.90
58582;DHT22;44361;51.476;5.700;2023-03-01T16:40:03;5.70;56.30
58582;DHT22;44361;51.476;5.700;2023-03-01T16:42:34;5.70;56.20
58582;DHT22;44361;51.476;5.700;2023-03-01T16:45:00;5.70;55.90
58582;DHT22;44361;51.476;5.700;2023-03-01T16:47:27;5.60;56.90
58582;DHT22;44361;51.476;5.700;2023-03-01T16:49:53;5.50;56.60
58582;DHT22;44361;51.476;5.700;2023-03-01T16:52:20;5.50;56.70
58582;DHT22;44361;51.476;5.700;2023-03-01T16:54:45;5.40;56.80
58582;DHT22;44361;51.476;5.700;2023-03-01T16:57:11;5.30;57.30
58582;DHT22;44361;51.476;5.700;2023-03-01T16:59:36;5.30;57.60
58582;DHT22;44361;51.476;5.700;2023-03-01T17:02:03;5.10;57.80
58582;DHT22;44361;51.476;5.700;2023-03-01T17:04:29;5.10;58.20
58582;DHT22;44361;51.476;5.700;2023-03-01T17:06:54;5.00;58.30
58582;DHT22;44361;51.476;5.700;2023-03-01T17:09:20;4.90;58.80
58582;DHT22;44361;51.476;5.700;2023-03-01T17:11:47;4.80;59.70
58582;DHT22;44361;51.476;5.700;2023-03-01T17:14:14;4.70;59.80
58582;DHT22;44361;51.476;5.700;2023-03-01T17:16:41;4.60;60.60
58582;DHT22;44361;51.476;5.700;2023-03-01T17:19:07;4.60;60.50
58582;DHT22;44361;51.476;5.700;2023-03-01T17:21:32;4.60;60.80
58582;DHT22;44361;51.476;5.700;2023-03-01T17:23:58;4.40;61.10
58582;DHT22;44361;51.476;5.700;2023-03-01T17:26:24;4.30;61.60
58582;DHT22;44361;51.476;5.700;2023-03-01T17:28:49;4.20;61.90
58582;DHT22;44361;51.476;5.700;2023-03-01T17:31:16;4.20;62.40
58582;DHT22;44361;51.476;5.700;2023-03-01T17:33:42;4.10;62.50
58582;DHT22;44361;51.476;5.700;2023-03-01T17:36:08;4.20;62.00
58582;DHT22;44361;51.476;5.700;2023-03-01T17:38:33;4.10;62.30
58582;DHT22;44361;51.476;5.700;2023-03-01T17:41:00;4.00;62.40
58582;DHT22;44361;51.476;5.700;2023-03-01T17:43:26;3.90;62.80
58582;DHT22;44361;51.476;5.700;2023-03-01T17:45:52;3.70;63.00
58582;DHT22;44361;51.476;5.700;2023-03-01T17:48:19;3.60;63.90
58582;DHT22;44361;51.476;5.700;2023-03-01T17:50:45;3.50;64.20
58582;DHT22;44361;51.476;5.700;2023-03-01T17:53:11;3.40;64.70